sensor_id;sensor_type;location;lat;lon;timestamp;pressure;altitude;pressure_sealevel;temperature;humidity
44044;BME280;29709;52.396;16.796;2024-02-23T00:01:18;99036.29;;;10.69;84.18
44044;BME280;29709;52.396;16.796;2024-02-23T00:04:31;99031.00;;;10.68;84.33
44044;BME280;29709;52.396;16.796;2024-02-23T00:07:44;99031.44;;;10.65;84.47
44044;BME280;29709;52.396;16.796;2024-02-23T00:10:57;99034.19;;;10.65;84.66
44044;BME280;29709;52.396;16.796;2024-02-23T00:14:11;99029.94;;;10.69;84.56
44044;BME280;29709;52.396;16.796;2024-02-23T00:17:25;99032.47;;;10.70;84.76
44044;BME280;29709;52.396;16.796;2024-02-23T00:20:38;99025.51;;;10.68;84.72
44044;BME280;29709;52.396;16.796;2024-02-23T00:23:52;99030.38;;;10.66;84.98
44044;BME280;29709;52.396;16.796;2024-02-23T00:27:05;99025.09;;;10.64;85.20
44044;BME280;29709;52.396;16.796;2024-02-23T00:30:18;99023.20;;;10.65;85.02
44044;BME280;29709;52.396;16.796;2024-02-23T00:33:32;99019.16;;;10.67;85.31
44044;BME280;29709;52.396;16.796;2024-02-23T00:36:46;99025.73;;;10.66;85.45
44044;BME280;29709;52.396;16.796;2024-02-23T00:40:02;99022.54;;;10.69;85.46
44044;BME280;29709;52.396;16.796;2024-02-23T00:43:19;99024.45;;;10.69;85.56
44044;BME280;29709;52.396;16.796;2024-02-23T00:46:32;99033.09;;;10.73;85.75
44044;BME280;29709;52.396;16.796;2024-02-23T00:49:46;99023.62;;;10.75;85.47
44044;BME280;29709;52.396;16.796;2024-02-23T00:52:59;99014.52;;;10.75;86.07
44044;BME280;29709;52.396;16.796;2024-02-23T00:56:13;99020.86;;;10.75;86.00
44044;BME280;29709;52.396;16.796;2024-02-23T00:59:26;99016.62;;;10.79;85.88
44044;BME280;29709;52.396;16.796;2024-02-23T01:02:39;99021.27;;;10.79;85.84
44044;BME280;29709;52.396;16.796;2024-02-23T01:05:53;99026.99;;;10.84;86.15
44044;BME280;29709;52.396;16.796;2024-02-23T01:09:06;99023.37;;;10.83;86.23
44044;BME280;29709;52.396;16.796;2024-02-23T01:12:19;99022.53;;;10.83;86.52
44044;BME280;29709;52.396;16.796;2024-02-23T01:15:33;99022.53;;;10.83;86.80
44044;BME280;29709;52.396;16.796;2024-02-23T01:18:47;99025.27;;;10.83;86.89
44044;BME280;29709;52.396;16.796;2024-02-23T01:22:00;99028.86;;;10.83;86.82
44044;BME280;29709;52.396;16.796;2024-02-23T01:25:13;99019.59;;;10.84;87.14
44044;BME280;29709;52.396;16.796;2024-02-23T01:28:28;99030.58;;;10.84;87.08
44044;BME280;29709;52.396;16.796;2024-02-23T01:31:41;99026.34;;;10.88;87.19
44044;BME280;29709;52.396;16.796;2024-02-23T01:34:54;99037.54;;;10.87;87.47
44044;BME280;29709;52.396;16.796;2024-02-23T01:38:08;99037.95;;;10.90;87.37
44044;BME280;29709;52.396;16.796;2024-02-23T01:41:21;99040.92;;;10.95;87.01
44044;BME280;29709;52.396;16.796;2024-02-23T01:44:34;99042.61;;;10.96;87.19
44044;BME280;29709;52.396;16.796;2024-02-23T01:47:47;99044.93;;;10.99;87.32
44044;BME280;29709;52.396;16.796;2024-02-23T01:51:00;99037.33;;;10.95;87.00
44044;BME280;29709;52.396;16.796;2024-02-23T01:54:15;99043.23;;;11.05;86.78
44044;BME280;29709;52.396;16.796;2024-02-23T01:57:28;99057.17;;;11.10;86.75
44044;BME280;29709;52.396;16.796;2024-02-23T02:00:41;99036.65;;;11.13;86.80
44044;BME280;29709;52.396;16.796;2024-02-23T02:03:54;99032.83;;;11.14;86.57
44044;BME280;29709;52.396;16.796;2024-02-23T02:07:09;99035.57;;;11.20;86.36
44044;BME280;29709;52.396;16.796;2024-02-23T02:10:22;99034.52;;;11.21;86.09
44044;BME280;29709;52.396;16.796;2024-02-23T02:13:35;99034.11;;;11.18;85.89
44044;BME280;29709;52.396;16.796;2024-02-23T02:16:48;99041.08;;;11.14;85.84
44044;BME280;29709;52.396;16.796;2024-02-23T02:20:03;99044.05;;;11.12;86.26
44044;BME280;29709;52.396;16.796;2024-02-23T02:23:19;99033.49;;;11.09;86.05
44044;BME280;29709;52.396;16.796;2024-02-23T02:26:32;99049.98;;;11.09;86.22
44044;BME280;29709;52.396;16.796;2024-02-23T02:29:45;99047.23;;;11.09;85.98
44044;BME280;29709;52.396;16.796;2024-02-23T02:32:59;99046.83;;;11.06;86.27
44044;BME280;29709;52.396;16.796;2024-02-23T02:36:12;99042.17;;;11.06;86.07
44044;BME280;29709;52.396;16.796;2024-02-23T02:39:25;99034.77;;;11.00;86.30
44044;BME280;29709;52.396;16.796;2024-02-23T02:42:38;99036.90;;;10.98;86.52
44044;BME280;29709;52.396;16.796;2024-02-23T02:45:51;99037.08;;;11.03;86.20
44044;BME280;29709;52.396;16.796;2024-02-23T02:49:05;99041.34;;;11.06;85.85
44044;BME280;29709;52.396;16.796;2024-02-23T02:52:18;99052.52;;;11.04;86.15
44044;BME280;29709;52.396;16.796;2024-02-23T02:55:36;99069.88;;;11.05;86.21
44044;BME280;29709;52.396;16.796;2024-02-23T02:58:49;99069.66;;;11.06;85.89
44044;BME280;29709;52.396;16.796;2024-02-23T03:02:03;99082.76;;;11.04;86.56
44044;BME280;29709;52.396;16.796;2024-02-23T03:05:17;99074.95;;;11.08;86.44
44044;BME280;29709;52.396;16.796;2024-02-23T03:08:30;99088.91;;;11.06;85.97
44044;BME280;29709;52.396;16.796;2024-02-23T03:11:44;99083.62;;;11.05;86.33
44044;BME280;29709;52.396;16.796;2024-02-23T03:14:57;99087.00;;;11.07;86.24
44044;BME280;29709;52.396;16.796;2024-02-23T03:18:10;99097.16;;;11.06;86.24
44044;BME280;29709;52.396;16.796;2024-02-23T03:21:23;99096.95;;;11.08;85.99
44044;BME280;29709;52.396;16.796;2024-02-23T03:24:37;99102.85;;;11.11;86.25
44044;BME280;29709;52.396;16.796;2024-02-23T03:27:50;99108.56;;;11.10;86.25
44044;BME280;29709;52.396;16.796;2024-02-23T03:31:03;99108.98;;;11.13;86.29
44044;BME280;29709;52.396;16.796;2024-02-23T03:34:17;99117.45;;;11.18;86.33
44044;BME280;29709;52.396;16.796;2024-02-23T03:37:30;99114.69;;;11.18;86.03
44044;BME280;29709;52.396;16.796;2024-02-23T03:40:43;99124.82;;;11.24;86.00
44044;BME280;29709;52.396;16.796;2024-02-23T03:43:56;99130.54;;;11.30;85.77
44044;BME280;29709;52.396;16.796;2024-02-23T03:47:10;99139.86;;;11.28;85.67
44044;BME280;29709;52.396;16.796;2024-02-23T03:50:23;99147.05;;;11.30;86.13
44044;BME280;29709;52.396;16.796;2024-02-23T03:53:36;99149.36;;;11.33;85.62
44044;BME280;29709;52.396;16.796;2024-02-23T03:56:49;99152.95;;;11.33;85.35
44044;BME280;29709;52.396;16.796;2024-02-23T04:00:03;99165.42;;;11.36;85.29
44044;BME280;29709;52.396;16.796;2024-02-23T04:03:17;99166.48;;;11.35;85.32
44044;BME280;29709;52.396;16.796;2024-02-23T04:06:30;99171.15;;;11.34;85.65
44044;BME280;29709;52.396;16.796;2024-02-23T04:09:43;99179.84;;;11.38;85.34
44044;BME280;29709;52.396;16.796;2024-02-23T04:12:57;99203.31;;;11.40;85.17
44044;BME280;29709;52.396;16.796;2024-02-23T04:16:10;99199.73;;;11.46;84.92
44044;BME280;29709;52.396;16.796;2024-02-23T04:19:24;99194.63;;;11.43;85.19
44044;BME280;29709;52.396;16.796;2024-02-23T04:22:37;99202.66;;;11.45;84.89
44044;BME280;29709;52.396;16.796;2024-02-23T04:25:51;99203.10;;;11.48;85.10
44044;BME280;29709;52.396;16.796;2024-02-23T04:29:04;99218.96;;;11.53;85.01
44044;BME280;29709;52.396;16.796;2024-02-23T04:32:17;99211.77;;;11.59;84.99
44044;BME280;29709;52.396;16.796;2024-02-23T04:35:30;99231.45;;;11.62;84.61
44044;BME280;29709;52.396;16.796;2024-02-23T04:38:43;99230.59;;;11.68;84.46
44044;BME280;29709;52.396;16.796;2024-02-23T04:41:57;99245.42;;;11.67;84.47
44044;BME280;29709;52.396;16.796;2024-02-23T04:45:11;99235.04;;;11.69;84.45
44044;BME280;29709;52.396;16.796;2024-02-23T04:48:24;99245.20;;;11.69;84.74
44044;BME280;29709;52.396;16.796;2024-02-23T04:51:37;99248.59;;;11.71;84.57
44044;BME280;29709;52.396;16.796;2024-02-23T04:54:50;99250.89;;;11.74;84.07
44044;BME280;29709;52.396;16.796;2024-02-23T04:58:04;99252.18;;;11.71;84.45
44044;BME280;29709;52.396;16.796;2024-02-23T05:01:17;99258.75;;;11.70;84.31
44044;BME280;29709;52.396;16.796;2024-02-23T05:04:31;99268.06;;;11.69;84.44
44044;BME280;29709;52.396;16.796;2024-02-23T05:07:44;99281.20;;;11.67;84.44
44044;BME280;29709;52.396;16.796;2024-02-23T05:10:57;99294.52;;;11.64;84.55
44044;BME280;29709;52.396;16.796;2024-02-23T05:14:12;99290.07;;;11.63;84.59
44044;BME280;29709;52.396;16.796;2024-02-23T05:17:25;99309.12;;;11.64;84.91
44044;BME280;29709;52.396;16.796;2024-02-23T05:20:38;99308.51;;;11.69;84.56
44044;BME280;29709;52.396;16.796;2024-02-23T05:23:52;99320.13;;;11.64;84.72
44044;BME280;29709;52.396;16.796;2024-02-23T05:27:05;99319.72;;;11.67;84.61
44044;BME280;29709;52.396;16.796;2024-02-23T05:30:18;99328.40;;;11.71;84.21
44044;BME280;29709;52.396;16.796;2024-02-23T05:33:31;99338.76;;;11.75;84.15
44044;BME280;29709;52.396;16.796;2024-02-23T05:36:45;99349.18;;;11.80;83.95
44044;BME280;29709;52.396;16.796;2024-02-23T05:40:04;99356.38;;;11.81;84.06
44044;BME280;29709;52.396;16.796;2024-02-23T05:43:23;99367.59;;;11.86;83.94
44044;BME280;29709;52.396;16.796;2024-02-23T05:46:36;99372.03;;;11.87;83.82
44044;BME280;29709;52.396;16.796;2024-02-23T05:49:50;99383.89;;;11.88;83.14
44044;BME280;29709;52.396;16.796;2024-02-23T05:53:03;99389.22;;;11.89;81.98
44044;BME280;29709;52.396;16.796;2024-02-23T05:56:17;99389.41;;;11.94;80.97
44044;BME280;29709;52.396;16.796;2024-02-23T05:59:30;99398.31;;;12.03;79.86
44044;BME280;29709;52.396;16.796;2024-02-23T06:02:44;99409.34;;;12.09;78.77
44044;BME280;29709;52.396;16.796;2024-02-23T06:05:58;99416.95;;;12.14;78.60
44044;BME280;29709;52.396;16.796;2024-02-23T06:09:11;99420.12;;;12.18;78.14
44044;BME280;29709;52.396;16.796;2024-02-23T06:12:24;99425.62;;;12.18;78.55
44044;BME280;29709;52.396;16.796;2024-02-23T06:15:38;99431.80;;;12.20;79.30
44044;BME280;29709;52.396;16.796;2024-02-23T06:18:53;99438.55;;;12.17;79.55
44044;BME280;29709;52.396;16.796;2024-02-23T06:22:06;99438.99;;;12.14;79.20
44044;BME280;29709;52.396;16.796;2024-02-23T06:25:22;99437.29;;;12.13;79.58
44044;BME280;29709;52.396;16.796;2024-02-23T06:28:36;99450.84;;;12.14;79.88
44044;BME280;29709;52.396;16.796;2024-02-23T06:31:54;99461.66;;;12.09;79.69
44044;BME280;29709;52.396;16.796;2024-02-23T06:35:08;99467.17;;;12.09;80.30
44044;BME280;29709;52.396;16.796;2024-02-23T06:38:21;99483.05;;;12.14;79.98
44044;BME280;29709;52.396;16.796;2024-02-23T06:41:34;99490.46;;;12.13;75.63
44044;BME280;29709;52.396;16.796;2024-02-23T06:44:48;99498.31;;;12.10;73.13
44044;BME280;29709;52.396;16.796;2024-02-23T06:48:02;99506.57;;;12.10;70.81
44044;BME280;29709;52.396;16.796;2024-02-23T06:51:17;99515.47;;;12.12;69.76
44044;BME280;29709;52.396;16.796;2024-02-23T06:54:33;99534.95;;;12.17;66.69
44044;BME280;29709;52.396;16.796;2024-02-23T06:57:46;99532.43;;;12.09;66.47
44044;BME280;29709;52.396;16.796;2024-02-23T07:01:00;99537.93;;;12.09;66.84
44044;BME280;29709;52.396;16.796;2024-02-23T07:04:15;99551.03;;;12.07;65.21
44044;BME280;29709;52.396;16.796;2024-02-23T07:07:28;99554.64;;;12.07;65.08
44044;BME280;29709;52.396;16.796;2024-02-23T07:10:43;99560.36;;;12.06;64.48
44044;BME280;29709;52.396;16.796;2024-02-23T07:13:56;99566.92;;;12.05;64.98
44044;BME280;29709;52.396;16.796;2024-02-23T07:17:09;99571.38;;;12.06;65.35
44044;BME280;29709;52.396;16.796;2024-02-23T07:20:22;99571.83;;;12.09;64.66
44044;BME280;29709;52.396;16.796;2024-02-23T07:23:36;99587.07;;;12.12;64.87
44044;BME280;29709;52.396;16.796;2024-02-23T07:26:49;99592.59;;;12.12;64.75
44044;BME280;29709;52.396;16.796;2024-02-23T07:30:02;99591.10;;;12.09;65.01
44044;BME280;29709;52.396;16.796;2024-02-23T07:33:17;99602.30;;;12.08;64.74
44044;BME280;29709;52.396;16.796;2024-02-23T07:36:31;99607.17;;;12.06;64.41
44044;BME280;29709;52.396;16.796;2024-02-23T07:39:45;99621.78;;;12.00;64.35
44044;BME280;29709;52.396;16.796;2024-02-23T07:42:58;99624.09;;;11.96;64.78
44044;BME280;29709;52.396;16.796;2024-02-23T07:46:12;99629.59;;;11.96;64.21
44044;BME280;29709;52.396;16.796;2024-02-23T07:49:26;99644.84;;;11.92;64.00
44044;BME280;29709;52.396;16.796;2024-02-23T07:52:41;99653.30;;;11.91;64.03
44044;BME280;29709;52.396;16.796;2024-02-23T07:55:54;99664.75;;;11.94;64.33
44044;BME280;29709;52.396;16.796;2024-02-23T07:59:08;99670.04;;;11.96;64.20
44044;BME280;29709;52.396;16.796;2024-02-23T08:02:21;99674.49;;;11.97;64.66
44044;BME280;29709;52.396;16.796;2024-02-23T08:05:34;99682.75;;;11.97;64.09
44044;BME280;29709;52.396;16.796;2024-02-23T08:08:47;99685.72;;;11.95;64.00
44044;BME280;29709;52.396;16.796;2024-02-23T08:12:01;99692.08;;;11.96;64.07
44044;BME280;29709;52.396;16.796;2024-02-23T08:15:14;99708.38;;;11.97;63.81
44044;BME280;29709;52.396;16.796;2024-02-23T08:18:28;99701.18;;;11.96;63.99
44044;BME280;29709;52.396;16.796;2024-02-23T08:21:41;99707.16;;;12.00;64.16
44044;BME280;29709;52.396;16.796;2024-02-23T08:24:56;99706.30;;;11.99;64.84
44044;BME280;29709;52.396;16.796;2024-02-23T08:28:09;99707.16;;;12.00;64.87
44044;BME280;29709;52.396;16.796;2024-02-23T08:31:23;99699.53;;;12.02;64.88
44044;BME280;29709;52.396;16.796;2024-02-23T08:34:37;99715.00;;;12.03;64.95
44044;BME280;29709;52.396;16.796;2024-02-23T08:37:50;99716.27;;;12.07;64.54
44044;BME280;29709;52.396;16.796;2024-02-23T08:41:03;99723.11;;;12.18;65.74
44044;BME280;29709;52.396;16.796;2024-02-23T08:44:17;99721.87;;;12.20;65.51
44044;BME280;29709;52.396;16.796;2024-02-23T08:47:30;99730.56;;;12.24;65.13
44044;BME280;29709;52.396;16.796;2024-02-23T08:50:48;99740.30;;;12.26;64.58
44044;BME280;29709;52.396;16.796;2024-02-23T08:54:01;99747.52;;;12.27;64.67
44044;BME280;29709;52.396;16.796;2024-02-23T08:57:18;99759.17;;;12.29;64.83
44044;BME280;29709;52.396;16.796;2024-02-23T09:00:35;99773.21;;;12.34;64.96
44044;BME280;29709;52.396;16.796;2024-02-23T09:03:50;99783.59;;;12.32;65.09
44044;BME280;29709;52.396;16.796;2024-02-23T09:07:03;99802.03;;;12.32;65.19
44044;BME280;29709;52.396;16.796;2024-02-23T09:10:16;99814.69;;;12.20;64.60
44044;BME280;29709;52.396;16.796;2024-02-23T09:13:30;99830.95;;;12.14;64.12
44044;BME280;29709;52.396;16.796;2024-02-23T09:16:44;99818.38;;;12.05;63.65
44044;BME280;29709;52.396;16.796;2024-02-23T09:20:00;99824.65;;;11.93;63.27
44044;BME280;29709;52.396;16.796;2024-02-23T09:23:13;99819.77;;;11.88;63.08
44044;BME280;29709;52.396;16.796;2024-02-23T09:26:26;99834.33;;;11.82;63.35
44044;BME280;29709;52.396;16.796;2024-02-23T09:29:40;99835.61;;;11.86;63.61
44044;BME280;29709;52.396;16.796;2024-02-23T09:32:54;99840.98;;;11.94;63.13
44044;BME280;29709;52.396;16.796;2024-02-23T09:36:08;99847.73;;;11.92;62.98
44044;BME280;29709;52.396;16.796;2024-02-23T09:39:22;99856.20;;;11.90;62.72
44044;BME280;29709;52.396;16.796;2024-02-23T09:42:43;99852.61;;;11.90;63.01
44044;BME280;29709;52.396;16.796;2024-02-23T09:46:01;99865.11;;;11.92;62.47
44044;BME280;29709;52.396;16.796;2024-02-23T09:49:15;99864.97;;;12.00;62.08
44044;BME280;29709;52.396;16.796;2024-02-23T09:52:32;99874.45;;;11.98;62.19
44044;BME280;29709;52.396;16.796;2024-02-23T09:55:45;99878.53;;;12.02;62.19
44044;BME280;29709;52.396;16.796;2024-02-23T09:59:02;99888.73;;;12.08;61.87
44044;BME280;29709;52.396;16.796;2024-02-23T10:02:16;99897.90;;;12.15;61.82
44044;BME280;29709;52.396;16.796;2024-02-23T10:05:31;99897.49;;;12.18;61.20
44044;BME280;29709;52.396;16.796;2024-02-23T10:08:44;99879.06;;;12.19;60.91
44044;BME280;29709;52.396;16.796;2024-02-23T10:11:58;99891.81;;;12.20;61.22
44044;BME280;29709;52.396;16.796;2024-02-23T10:15:11;99897.96;;;12.22;59.50
44044;BME280;29709;52.396;16.796;2024-02-23T10:18:24;99902.91;;;12.33;60.41
44044;BME280;29709;52.396;16.796;2024-02-23T10:21:37;99920.38;;;12.47;59.63
44044;BME280;29709;52.396;16.796;2024-02-23T10:24:51;99920.43;;;12.53;59.50
44044;BME280;29709;52.396;16.796;2024-02-23T10:28:07;99926.82;;;12.60;60.16
44044;BME280;29709;52.396;16.796;2024-02-23T10:31:24;99918.54;;;12.60;59.44
44044;BME280;29709;52.396;16.796;2024-02-23T10:34:38;99931.30;;;12.61;58.69
44044;BME280;29709;52.396;16.796;2024-02-23T10:37:55;99926.17;;;12.58;57.87
44044;BME280;29709;52.396;16.796;2024-02-23T10:41:12;99932.53;;;12.59;57.89
44044;BME280;29709;52.396;16.796;2024-02-23T10:44:28;99930.25;;;12.62;58.32
44044;BME280;29709;52.396;16.796;2024-02-23T10:47:42;99934.98;;;12.75;57.99
44044;BME280;29709;52.396;16.796;2024-02-23T10:50:56;99938.38;;;12.77;57.93
44044;BME280;29709;52.396;16.796;2024-02-23T10:54:11;99945.31;;;12.66;56.13
44044;BME280;29709;52.396;16.796;2024-02-23T10:57:26;99954.00;;;12.63;56.98
44044;BME280;29709;52.396;16.796;2024-02-23T11:00:40;99952.89;;;12.58;56.27
44044;BME280;29709;52.396;16.796;2024-02-23T11:03:55;99947.73;;;12.48;55.72
44044;BME280;29709;52.396;16.796;2024-02-23T11:07:13;99954.06;;;12.42;56.12
44044;BME280;29709;52.396;16.796;2024-02-23T11:10:27;99966.79;;;12.43;56.43
44044;BME280;29709;52.396;16.796;2024-02-23T11:13:44;99962.36;;;12.49;56.95
44044;BME280;29709;52.396;16.796;2024-02-23T11:16:58;99957.96;;;12.54;56.64
44044;BME280;29709;52.396;16.796;2024-02-23T11:20:14;99961.63;;;12.61;55.86
44044;BME280;29709;52.396;16.796;2024-02-23T11:26:59;99959.25;;;12.58;54.63
44044;BME280;29709;52.396;16.796;2024-02-23T11:30:18;99944.97;;;12.48;55.17
44044;BME280;29709;52.396;16.796;2024-02-23T11:33:34;99964.27;;;12.48;55.23
44044;BME280;29709;52.396;16.796;2024-02-23T11:36:51;99955.49;;;12.38;54.97
44044;BME280;29709;52.396;16.796;2024-02-23T11:40:07;99954.14;;;12.27;53.64
44044;BME280;29709;52.396;16.796;2024-02-23T11:43:20;99956.05;;;12.27;55.65
44044;BME280;29709;52.396;16.796;2024-02-23T11:46:34;99962.55;;;12.19;54.73
44044;BME280;29709;52.396;16.796;2024-02-23T11:49:47;99964.46;;;12.19;55.19
44044;BME280;29709;52.396;16.796;2024-02-23T11:53:01;99962.31;;;12.14;55.00
44044;BME280;29709;52.396;16.796;2024-02-23T11:56:16;99963.10;;;12.08;55.41
44044;BME280;29709;52.396;16.796;2024-02-23T11:59:32;99964.15;;;12.07;55.66
44044;BME280;29709;52.396;16.796;2024-02-23T12:02:45;99965.20;;;12.06;55.51
44044;BME280;29709;52.396;16.796;2024-02-23T12:06:03;99979.45;;;12.09;55.46
44044;BME280;29709;52.396;16.796;2024-02-23T12:09:18;99978.77;;;12.07;55.77
44044;BME280;29709;52.396;16.796;2024-02-23T12:12:31;99989.00;;;12.13;56.23
44044;BME280;29709;52.396;16.796;2024-02-23T12:15:45;99992.54;;;12.07;56.01
44044;BME280;29709;52.396;16.796;2024-02-23T12:18:58;100005.87;;;12.04;56.02
44044;BME280;29709;52.396;16.796;2024-02-23T12:22:11;100015.38;;;12.01;55.70
44044;BME280;29709;52.396;16.796;2024-02-23T12:25:27;100018.38;;;12.06;56.36
44044;BME280;29709;52.396;16.796;2024-02-23T12:28:41;100028.83;;;12.11;56.00
44044;BME280;29709;52.396;16.796;2024-02-23T12:35:19;100039.88;;;12.18;56.11
44044;BME280;29709;52.396;16.796;2024-02-23T12:38:33;100049.28;;;12.23;56.30
44044;BME280;29709;52.396;16.796;2024-02-23T12:41:46;100055.84;;;12.22;56.07
44044;BME280;29709;52.396;16.796;2024-02-23T12:45:00;100064.36;;;12.27;56.42
44044;BME280;29709;52.396;16.796;2024-02-23T12:48:13;100041.77;;;12.38;55.80
44044;BME280;29709;52.396;16.796;2024-02-23T12:51:27;100026.02;;;12.54;56.31
44044;BME280;29709;52.396;16.796;2024-02-23T12:54:40;100054.64;;;12.53;55.18
44044;BME280;29709;52.396;16.796;2024-02-23T12:57:55;100050.83;;;12.54;55.81
44044;BME280;29709;52.396;16.796;2024-02-23T13:01:08;100054.48;;;12.61;55.40
44044;BME280;29709;52.396;16.796;2024-02-23T13:04:22;100058.79;;;12.70;55.07
44044;BME280;29709;52.396;16.796;2024-02-23T13:07:35;100058.64;;;12.78;55.88
44044;BME280;29709;52.396;16.796;2024-02-23T13:10:52;100063.95;;;12.80;55.03
44044;BME280;29709;52.396;16.796;2024-02-23T13:14:06;100046.82;;;12.84;56.06
44044;BME280;29709;52.396;16.796;2024-02-23T13:17:22;100045.97;;;12.84;55.85
44044;BME280;29709;52.396;16.796;2024-02-23T13:20:36;100055.09;;;12.84;55.37
44044;BME280;29709;52.396;16.796;2024-02-23T13:23:50;100047.47;;;12.86;55.53
44044;BME280;29709;52.396;16.796;2024-02-23T13:27:03;100049.87;;;12.96;54.80
44044;BME280;29709;52.396;16.796;2024-02-23T13:30:16;100046.41;;;12.87;53.11
44044;BME280;29709;52.396;16.796;2024-02-23T13:33:30;100045.49;;;12.80;55.00
44044;BME280;29709;52.396;16.796;2024-02-23T13:36:44;100040.84;;;12.81;55.33
44044;BME280;29709;52.396;16.796;2024-02-23T13:39:57;100029.98;;;12.73;54.49
44044;BME280;29709;52.396;16.796;2024-02-23T13:43:10;100027.58;;;12.63;55.10
44044;BME280;29709;52.396;16.796;2024-02-23T13:46:23;100026.52;;;12.64;55.91
44044;BME280;29709;52.396;16.796;2024-02-23T13:49:38;100032.38;;;12.54;55.02
44044;BME280;29709;52.396;16.796;2024-02-23T13:52:51;100038.88;;;12.47;55.11
44044;BME280;29709;52.396;16.796;2024-02-23T13:56:05;100040.72;;;12.39;55.02
44044;BME280;29709;52.396;16.796;2024-02-23T13:59:18;100049.19;;;12.38;55.53
44044;BME280;29709;52.396;16.796;2024-02-23T14:06:20;100051.05;;;12.31;56.32
44044;BME280;29709;52.396;16.796;2024-02-23T14:12:18;100071.97;;;12.25;56.65
44044;BME280;29709;52.396;16.796;2024-02-23T14:15:32;100071.24;;;12.17;56.37
44044;BME280;29709;52.396;16.796;2024-02-23T14:18:45;100079.26;;;12.11;56.98
44044;BME280;29709;52.396;16.796;2024-02-23T14:21:59;100083.44;;;12.07;57.14
44044;BME280;29709;52.396;16.796;2024-02-23T14:25:12;100088.05;;;12.00;56.80
44044;BME280;29709;52.396;16.796;2024-02-23T14:28:25;100087.55;;;11.97;56.63
44044;BME280;29709;52.396;16.796;2024-02-23T14:31:38;100086.34;;;11.99;57.43
44044;BME280;29709;52.396;16.796;2024-02-23T14:34:52;100092.49;;;12.01;56.69
44044;BME280;29709;52.396;16.796;2024-02-23T14:38:05;100091.84;;;11.99;56.95
44044;BME280;29709;52.396;16.796;2024-02-23T14:41:18;100108.73;;;11.96;57.49
44044;BME280;29709;52.396;16.796;2024-02-23T14:44:31;100110.44;;;11.97;57.82
44044;BME280;29709;52.396;16.796;2024-02-23T14:47:44;100114.19;;;11.90;58.09
44044;BME280;29709;52.396;16.796;2024-02-23T14:50:57;100113.90;;;11.84;57.96
44044;BME280;29709;52.396;16.796;2024-02-23T14:54:12;100115.21;;;11.74;57.99
44044;BME280;29709;52.396;16.796;2024-02-23T14:57:28;100115.80;;;11.69;58.96
44044;BME280;29709;52.396;16.796;2024-02-23T15:00:41;100121.31;;;11.69;59.11
44044;BME280;29709;52.396;16.796;2024-02-23T15:03:54;100118.27;;;11.64;58.92
44044;BME280;29709;52.396;16.796;2024-02-23T15:07:08;100109.35;;;11.62;59.22
44044;BME280;29709;52.396;16.796;2024-02-23T15:10:21;100110.20;;;11.63;59.76
44044;BME280;29709;52.396;16.796;2024-02-23T15:13:35;100101.30;;;11.61;59.29
44044;BME280;29709;52.396;16.796;2024-02-23T15:16:48;100101.30;;;11.61;60.06
44044;BME280;29709;52.396;16.796;2024-02-23T15:20:02;100113.05;;;11.54;59.88
44044;BME280;29709;52.396;16.796;2024-02-23T15:23:15;100125.70;;;11.49;60.08
44044;BME280;29709;52.396;16.796;2024-02-23T15:26:28;100119.53;;;11.47;60.19
44044;BME280;29709;52.396;16.796;2024-02-23T15:29:43;100118.84;;;11.45;60.05
44044;BME280;29709;52.396;16.796;2024-02-23T15:32:56;100120.08;;;11.42;60.49
44044;BME280;29709;52.396;16.796;2024-02-23T15:36:09;100126.25;;;11.44;60.55
44044;BME280;29709;52.396;16.796;2024-02-23T15:39:23;100129.30;;;11.49;60.59
44044;BME280;29709;52.396;16.796;2024-02-23T15:42:36;100126.16;;;11.52;60.54
44044;BME280;29709;52.396;16.796;2024-02-23T15:45:49;100136.96;;;11.54;60.90
44044;BME280;29709;52.396;16.796;2024-02-23T15:49:05;100133.66;;;11.59;61.10
44044;BME280;29709;52.396;16.796;2024-02-23T15:52:19;100131.76;;;11.59;60.68
44044;BME280;29709;52.396;16.796;2024-02-23T15:55:32;100134.52;;;11.59;60.24
44044;BME280;29709;52.396;16.796;2024-02-23T15:58:45;100150.38;;;11.57;60.32
44044;BME280;29709;52.396;16.796;2024-02-23T16:01:58;100146.94;;;11.55;61.16
44044;BME280;29709;52.396;16.796;2024-02-23T16:05:15;100157.85;;;11.63;61.07
44044;BME280;29709;52.396;16.796;2024-02-23T16:11:54;100153.97;;;11.58;61.11
44044;BME280;29709;52.396;16.796;2024-02-23T16:15:09;100158.98;;;11.54;61.32
44044;BME280;29709;52.396;16.796;2024-02-23T16:18:22;100156.32;;;11.46;61.38
44044;BME280;29709;52.396;16.796;2024-02-23T16:21:36;100154.55;;;11.38;61.70
44044;BME280;29709;52.396;16.796;2024-02-23T16:24:55;100152.91;;;11.29;61.68
44044;BME280;29709;52.396;16.796;2024-02-23T16:28:09;100147.89;;;11.18;62.29
44044;BME280;29709;52.396;16.796;2024-02-23T16:31:22;100162.57;;;11.10;62.50
44044;BME280;29709;52.396;16.796;2024-02-23T16:34:35;100168.05;;;10.95;62.71
44044;BME280;29709;52.396;16.796;2024-02-23T16:37:48;100172.26;;;10.83;63.03
44044;BME280;29709;52.396;16.796;2024-02-23T16:41:01;100172.71;;;10.72;63.37
44044;BME280;29709;52.396;16.796;2024-02-23T16:44:15;100171.24;;;10.61;63.61
44044;BME280;29709;52.396;16.796;2024-02-23T16:47:32;100173.23;;;10.53;63.57
44044;BME280;29709;52.396;16.796;2024-02-23T16:50:46;100175.52;;;10.41;64.40
44044;BME280;29709;52.396;16.796;2024-02-23T16:53:59;100180.91;;;10.34;64.47
44044;BME280;29709;52.396;16.796;2024-02-23T16:57:12;100185.23;;;10.29;64.58
44044;BME280;29709;52.396;16.796;2024-02-23T17:00:26;100184.75;;;10.25;65.03
44044;BME280;29709;52.396;16.796;2024-02-23T17:03:42;100178.89;;;10.20;65.26
44044;BME280;29709;52.396;16.796;2024-02-23T17:06:56;100171.02;;;10.17;66.01